createdAt,value
2019-02-18T00:00:33.614Z,101086.93
2019-02-18T00:03:02.257Z,101088.95
2019-02-18T00:05:30.819Z,101078.75
2019-02-18T00:07:59.496Z,101078.75
2019-02-18T00:10:27.999Z,101091.00
2019-02-18T00:12:56.831Z,101081.70
2019-02-18T00:15:25.419Z,101084.72
2019-02-18T00:17:54.050Z,101084.72
2019-02-18T00:20:22.677Z,101093.67
2019-02-18T00:22:51.359Z,101087.80
2019-02-18T00:25:20.010Z,101087.80
2019-02-18T00:27:48.504Z,101079.39
2019-02-18T00:30:17.066Z,101082.46
2019-02-18T00:32:45.680Z,101080.14
2019-02-18T00:35:14.197Z,101080.14
2019-02-18T00:37:42.814Z,101075.52
2019-02-18T00:40:11.438Z,101075.52
2019-02-18T00:42:40.073Z,101079.98
2019-02-18T00:45:12.013Z,101071.13
2019-02-18T00:47:40.638Z,101071.13
2019-02-18T00:50:10.843Z,101068.36
2019-02-18T00:52:39.539Z,101066.33
2019-02-18T00:55:09.174Z,101066.33
2019-02-18T00:57:37.899Z,101070.14
2019-02-18T01:00:12.348Z,101070.14
2019-02-18T01:02:40.987Z,101061.50
2019-02-18T01:05:09.719Z,101058.16
2019-02-18T01:07:38.437Z,101057.83
2019-02-18T01:10:12.377Z,101057.83
2019-02-18T01:12:41.166Z,101050.19
2019-02-18T01:15:12.915Z,101049.00
2019-02-18T01:17:41.593Z,101044.70
2019-02-18T01:20:14.889Z,101048.94
2019-02-18T01:22:43.562Z,101048.94
2019-02-18T01:25:13.494Z,101048.55
2019-02-18T01:27:42.265Z,101036.70
2019-02-18T01:30:15.997Z,101035.09
2019-02-18T01:32:44.629Z,101035.09
2019-02-18T01:35:13.567Z,101029.58
2019-02-18T01:37:45.806Z,101024.11
2019-02-18T01:40:14.206Z,101024.11
2019-02-18T01:42:42.839Z,101022.00
2019-02-18T01:45:14.943Z,101024.62
2019-02-18T01:47:43.573Z,101027.60
2019-02-18T01:50:16.601Z,101020.71
2019-02-18T01:52:45.189Z,101011.35
2019-02-18T01:55:14.326Z,101011.35
2019-02-18T01:57:42.967Z,101013.61
2019-02-18T02:00:14.335Z,101007.84
2019-02-18T02:02:42.898Z,101001.05
2019-02-18T02:05:13.670Z,101001.05
2019-02-18T02:07:42.338Z,100996.17
2019-02-18T02:10:13.270Z,100997.72
2019-02-18T02:12:41.928Z,100994.47
2019-02-18T02:15:25.576Z,100993.72
2019-02-18T02:17:54.140Z,100995.12
2019-02-18T02:20:22.748Z,100997.70
2019-02-18T02:22:51.327Z,100995.75
2019-02-18T02:25:19.962Z,100995.75
2019-02-18T02:27:48.597Z,101004.67
2019-02-18T02:30:17.272Z,101005.95
2019-02-18T02:32:45.937Z,101005.95
2019-02-18T02:35:14.655Z,101003.36
2019-02-18T02:37:43.313Z,100997.73
2019-02-18T02:40:11.950Z,101003.16
2019-02-18T02:42:40.576Z,100999.82
2019-02-18T02:45:09.636Z,100994.36
2019-02-18T02:47:38.121Z,101009.71
2019-02-18T02:50:07.962Z,101009.71
2019-02-18T02:52:36.537Z,101007.57
2019-02-18T02:55:06.616Z,100994.41
2019-02-18T02:57:35.159Z,100993.64
2019-02-18T03:00:05.459Z,100996.22
2019-02-18T03:02:34.093Z,100997.87
2019-02-18T03:05:02.914Z,100997.48
2019-02-18T03:07:31.571Z,100989.81
2019-02-18T03:10:00.280Z,100989.29
2019-02-18T03:12:28.974Z,100989.29
2019-02-18T03:14:57.501Z,100992.36
2019-02-18T03:17:26.075Z,100992.36
2019-02-18T03:19:54.557Z,100991.27
2019-02-18T03:22:23.155Z,100991.27
2019-02-18T03:25:19.961Z,100995.94
2019-02-18T03:27:51.333Z,100995.94
2019-02-18T03:30:46.947Z,100987.08
2019-02-18T03:33:24.425Z,100981.20
2019-02-18T03:35:52.982Z,100992.48
2019-02-18T03:38:31.166Z,100992.48
2019-02-18T03:41:02.506Z,100980.54
2019-02-18T03:43:22.221Z,100986.52
2019-02-18T03:45:50.703Z,100990.01
2019-02-18T03:48:19.372Z,100992.17
2019-02-18T03:50:48.011Z,101005.41
2019-02-18T03:53:16.706Z,100994.38
2019-02-18T03:55:45.288Z,100994.38
2019-02-18T03:58:13.866Z,101003.02
2019-02-18T04:00:42.690Z,100995.42
2019-02-18T04:03:11.350Z,101004.33
2019-02-18T04:05:39.846Z,101004.33
2019-02-18T04:08:08.571Z,100996.25
2019-02-18T04:10:37.161Z,100998.00
2019-02-18T04:13:05.787Z,100998.00
2019-02-18T04:15:34.417Z,100996.33
2019-02-18T04:18:03.210Z,100996.33
2019-02-18T04:20:31.834Z,100994.21
2019-02-18T04:23:00.352Z,101005.73
2019-02-18T04:25:28.934Z,100999.82
2019-02-18T04:27:57.428Z,100999.82
2019-02-18T04:30:25.992Z,101009.28
2019-02-18T04:32:54.518Z,100994.02
2019-02-18T04:35:23.070Z,101003.78
2019-02-18T04:37:51.646Z,100998.32
2019-02-18T04:40:20.232Z,100998.32
2019-02-18T04:42:48.793Z,100991.42
2019-02-18T04:45:17.477Z,100991.42
2019-02-18T04:47:46.068Z,100997.02
2019-02-18T04:50:14.687Z,101000.98
2019-02-18T04:52:43.316Z,100992.20
2019-02-18T04:55:12.175Z,100992.20
2019-02-18T04:57:40.723Z,100995.69
2019-02-18T05:00:10.593Z,100993.08
2019-02-18T05:02:39.181Z,100996.02
2019-02-18T05:05:09.806Z,100996.02
2019-02-18T05:07:38.440Z,100999.87
2019-02-18T05:10:09.794Z,100999.57
2019-02-18T05:12:38.357Z,100999.57
2019-02-18T05:15:08.817Z,101000.34
2019-02-18T05:17:37.514Z,101005.48
2019-02-18T05:20:07.521Z,100998.77
2019-02-18T05:22:36.018Z,100998.77
2019-02-18T05:25:06.385Z,101003.12
2019-02-18T05:27:34.885Z,101003.12
2019-02-18T05:30:04.013Z,101002.28
2019-02-18T05:32:32.682Z,101008.16
2019-02-18T05:35:01.228Z,101008.16
2019-02-18T05:37:29.820Z,100998.77
2019-02-18T05:39:58.333Z,100999.53
2019-02-18T05:42:26.978Z,100999.53
2019-02-18T05:44:55.547Z,100999.06
2019-02-18T05:47:24.135Z,100999.84
2019-02-18T05:49:52.699Z,101008.56
2019-02-18T05:52:21.282Z,101003.42
2019-02-18T05:54:49.952Z,101003.42
2019-02-18T05:57:18.580Z,101017.03
2019-02-18T05:59:47.154Z,101012.41
2019-02-18T06:02:16.146Z,101018.27
2019-02-18T06:04:44.630Z,101018.27
2019-02-18T06:07:13.128Z,101029.25
2019-02-18T06:09:41.734Z,101029.25
2019-02-18T06:12:10.354Z,101026.62
2019-02-18T06:14:38.884Z,101029.50
2019-02-18T06:17:07.413Z,101026.08
2019-02-18T06:19:35.954Z,101035.58
2019-02-18T06:22:04.575Z,101035.58
2019-02-18T06:24:33.100Z,101035.79
2019-02-18T06:27:01.594Z,101033.90
2019-02-18T06:29:30.163Z,101038.83
2019-02-18T06:31:58.763Z,101040.76
2019-02-18T06:34:27.251Z,101040.76
2019-02-18T06:36:55.885Z,101032.35
2019-02-18T06:39:24.558Z,101035.00
2019-02-18T06:41:53.168Z,101035.00
2019-02-18T06:44:23.295Z,101035.88
2019-02-18T06:46:53.450Z,101037.71
2019-02-18T06:49:21.953Z,101037.71
2019-02-18T06:51:52.021Z,101042.44
2019-02-18T06:54:20.686Z,101038.58
2019-02-18T06:56:54.775Z,101038.58
2019-02-18T06:59:26.622Z,101011.89
2019-02-18T07:02:05.487Z,101047.34
2019-02-18T07:04:38.575Z,101056.77
2019-02-18T07:07:25.007Z,101046.80
2019-02-18T07:09:58.159Z,101056.63
2019-02-18T07:12:28.287Z,101050.08
2019-02-18T07:14:58.319Z,101050.64
2019-02-18T07:17:26.929Z,101045.86
2019-02-18T07:19:55.548Z,101046.88
2019-02-18T07:22:24.165Z,101044.72
2019-02-18T07:24:52.758Z,101043.73
2019-02-18T07:27:21.316Z,101042.30
2019-02-18T07:29:49.893Z,101038.77
2019-02-18T07:32:18.417Z,101038.84
2019-02-18T07:34:46.995Z,101039.78
2019-02-18T07:37:15.512Z,101030.68
2019-02-18T07:39:44.039Z,101031.51
2019-02-18T07:42:12.682Z,101033.55
2019-02-18T07:44:41.248Z,101035.43
2019-02-18T07:47:09.981Z,101033.90
2019-02-18T07:49:38.606Z,101033.80
2019-02-18T07:52:07.350Z,101029.11
2019-02-18T07:54:35.949Z,101027.84
2019-02-18T07:57:04.530Z,101029.00
2019-02-18T07:59:33.125Z,101027.94
2019-02-18T08:02:01.782Z,101028.71
2019-02-18T08:04:30.462Z,101030.06
2019-02-18T08:06:59.038Z,101026.77
2019-02-18T08:09:27.878Z,101027.61
2019-02-18T08:11:56.502Z,101021.41
2019-02-18T08:14:25.003Z,101018.07
2019-02-18T08:16:53.578Z,101016.79
2019-02-18T08:19:22.219Z,101022.59
2019-02-18T08:21:50.806Z,101016.44
2019-02-18T08:24:20.960Z,101016.75
2019-02-18T08:26:49.731Z,101014.53
2019-02-18T08:29:18.398Z,101010.19
2019-02-18T08:31:48.587Z,101006.05
2019-02-18T08:34:20.334Z,101003.68
2019-02-18T08:36:52.195Z,101011.65
2019-02-18T08:39:22.411Z,101006.73
2019-02-18T08:41:51.774Z,101010.28
2019-02-18T08:44:23.545Z,101009.45
2019-02-18T08:46:52.172Z,101014.00
2019-02-18T08:49:23.717Z,101008.16
2019-02-18T08:51:52.194Z,101012.70
2019-02-18T08:54:22.213Z,101005.36
2019-02-18T08:56:50.795Z,101009.93
2019-02-18T08:59:19.465Z,101008.42
2019-02-18T09:01:49.606Z,101010.98
2019-02-18T09:04:19.725Z,101009.58
2019-02-18T09:06:48.329Z,101005.88
2019-02-18T09:09:18.419Z,101002.22
2019-02-18T09:11:48.612Z,101001.45
2019-02-18T09:14:17.189Z,101001.36
2019-02-18T09:16:47.279Z,101002.86
2019-02-18T09:19:15.927Z,100998.67
2019-02-18T09:21:44.635Z,101003.72
2019-02-18T09:24:16.290Z,101012.63
2019-02-18T09:26:46.573Z,101009.22
2019-02-18T09:29:16.807Z,101014.36
2019-02-18T09:31:46.890Z,101006.94
2019-02-18T09:34:17.059Z,101008.27
2019-02-18T09:36:47.377Z,101004.61
2019-02-18T09:39:18.373Z,101004.50
2019-02-18T09:41:50.170Z,101003.95
2019-02-18T09:44:20.601Z,101001.61
2019-02-18T09:46:49.246Z,101001.25
2019-02-18T09:49:19.611Z,101005.72
2019-02-18T09:51:48.296Z,101005.88
2019-02-18T09:54:18.340Z,100997.84
2019-02-18T09:56:46.974Z,100999.05
2019-02-18T09:59:15.698Z,100996.95
2019-02-18T10:01:44.332Z,100995.86
2019-02-18T10:04:14.594Z,100990.29
2019-02-18T10:06:43.293Z,100990.87
2019-02-18T10:09:13.404Z,100989.42
2019-02-18T10:11:41.966Z,100990.81
2019-02-18T10:14:10.565Z,100984.31
2019-02-18T10:16:39.191Z,100976.81
2019-02-18T10:19:07.828Z,100978.88
2019-02-18T10:21:36.501Z,100975.41
2019-02-18T10:24:05.230Z,100968.56
2019-02-18T10:26:33.782Z,100966.33
2019-02-18T10:29:02.438Z,100961.61
2019-02-18T10:31:30.947Z,100959.61
2019-02-18T10:33:59.570Z,100955.58
2019-02-18T10:36:28.330Z,100951.84
2019-02-18T10:38:56.835Z,100945.39
2019-02-18T10:41:25.392Z,100948.19
2019-02-18T10:43:54.782Z,100941.72
2019-02-18T10:46:23.573Z,100943.83
2019-02-18T10:48:52.129Z,100944.52
2019-02-18T10:51:20.657Z,100942.16
2019-02-18T10:53:49.225Z,100939.48
2019-02-18T10:56:17.908Z,100934.14
2019-02-18T10:58:47.121Z,100932.00
2019-02-18T11:01:15.693Z,100927.19
2019-02-18T11:03:44.249Z,100923.88
2019-02-18T11:06:12.839Z,100911.37
2019-02-18T11:08:41.399Z,100905.28
2019-02-18T11:11:16.627Z,100906.64
2019-02-18T11:13:40.364Z,100905.05
2019-02-18T11:16:08.895Z,100903.25
2019-02-18T11:18:37.529Z,100897.81
2019-02-18T11:21:06.189Z,100889.67
2019-02-18T11:23:34.845Z,100883.89
2019-02-18T11:26:03.473Z,100880.19
2019-02-18T11:28:32.089Z,100877.42
2019-02-18T11:31:00.660Z,100869.24
2019-02-18T11:33:29.284Z,100872.05
2019-02-18T11:35:58.335Z,100865.33
2019-02-18T11:38:26.983Z,100862.80
2019-02-18T11:40:55.548Z,100864.40
2019-02-18T11:43:24.205Z,100856.55
2019-02-18T11:45:52.767Z,100858.77
2019-02-18T11:48:21.393Z,100852.78
2019-02-18T11:50:50.441Z,100854.06
2019-02-18T11:53:19.002Z,100849.34
2019-02-18T11:55:47.578Z,100842.10
2019-02-18T11:58:16.173Z,100843.07
2019-02-18T12:00:46.280Z,100836.66
2019-02-18T12:03:14.853Z,100833.18
2019-02-18T12:05:43.925Z,100828.73
2019-02-18T12:08:13.669Z,100827.98
2019-02-18T12:10:43.812Z,100823.44
2019-02-18T12:13:12.318Z,100818.79
2019-02-18T12:15:40.955Z,100814.64
2019-02-18T12:18:09.848Z,100811.02
2019-02-18T12:20:38.412Z,100799.28
2019-02-18T12:23:07.167Z,100794.06
2019-02-18T12:25:35.760Z,100794.46
2019-02-18T12:28:04.318Z,100791.89
2019-02-18T12:30:32.962Z,100785.81
2019-02-18T12:33:01.556Z,100784.20
2019-02-18T12:35:31.651Z,100780.70
2019-02-18T12:38:00.407Z,100779.43
2019-02-18T12:40:29.004Z,100770.92
2019-02-18T12:42:57.732Z,100771.41
2019-02-18T12:45:26.447Z,100773.27
2019-02-18T12:47:55.102Z,100764.55
2019-02-18T12:50:23.804Z,100763.98
2019-02-18T12:52:52.849Z,100768.11
2019-02-18T12:55:21.769Z,100757.73
2019-02-18T12:57:50.595Z,100756.66
2019-02-18T13:00:19.427Z,100756.16
2019-02-18T13:02:48.165Z,100752.25
2019-02-18T13:05:16.731Z,100752.47
2019-02-18T13:07:45.290Z,100747.38
2019-02-18T13:10:13.955Z,100748.84
2019-02-18T13:12:42.950Z,100742.80
2019-02-18T13:15:16.221Z,100744.11
2019-02-18T13:17:44.875Z,100739.98
2019-02-18T13:20:13.807Z,100742.36
2019-02-18T13:22:42.832Z,100743.41
2019-02-18T13:25:12.016Z,100738.52
2019-02-18T13:27:40.649Z,100738.47
2019-02-18T13:30:11.893Z,100738.23
2019-02-18T13:32:40.494Z,100732.34
2019-02-18T13:35:09.421Z,100738.52
2019-02-18T13:37:38.245Z,100731.64
2019-02-18T13:40:07.399Z,100731.33
2019-02-18T13:42:35.971Z,100726.11
2019-02-18T13:45:06.773Z,100728.98
2019-02-18T13:47:35.461Z,100728.80
2019-02-18T13:50:05.385Z,100727.72
2019-02-18T13:52:34.026Z,100725.55
2019-02-18T13:55:02.564Z,100719.69
2019-02-18T13:57:31.113Z,100723.61
2019-02-18T13:59:59.851Z,100716.24
2019-02-18T14:02:28.527Z,100719.38
2019-02-18T14:04:57.085Z,100719.20
2019-02-18T14:07:25.663Z,100710.31
2019-02-18T14:09:54.247Z,100709.84
2019-02-18T14:12:23.568Z,100708.52
2019-02-18T14:14:52.749Z,100707.02
2019-02-18T14:17:21.470Z,100707.90
2019-02-18T14:19:50.119Z,100704.63
2019-02-18T14:22:18.736Z,100710.11
2019-02-18T14:24:47.566Z,100700.36
2019-02-18T14:27:16.248Z,100702.11
2019-02-18T14:29:44.867Z,100697.02
2019-02-18T14:32:13.466Z,100697.70
2019-02-18T14:34:42.097Z,100695.11
2019-02-18T14:37:10.734Z,100692.45
2019-02-18T14:39:39.510Z,100686.30
2019-02-18T14:42:08.201Z,100688.55
2019-02-18T14:44:36.835Z,100683.23
2019-02-18T14:47:06.167Z,100684.30
2019-02-18T14:49:34.998Z,100687.27
2019-02-18T14:52:03.962Z,100682.91
2019-02-18T14:54:32.591Z,100683.88
2019-02-18T14:57:01.156Z,100687.33
2019-02-18T14:59:29.789Z,100675.84
2019-02-18T15:01:58.932Z,100673.40
2019-02-18T15:04:27.630Z,100678.21
2019-02-18T15:06:56.234Z,100680.53
2019-02-18T15:09:24.913Z,100675.09
2019-02-18T15:11:53.544Z,100672.61
2019-02-18T15:14:22.162Z,100668.31
2019-02-18T15:16:51.136Z,100671.78
2019-02-18T15:19:19.820Z,100665.19
2019-02-18T15:21:48.384Z,100667.42
2019-02-18T15:24:17.111Z,100676.32
2019-02-18T15:26:45.671Z,100668.16
2019-02-18T15:29:14.309Z,100667.47
2019-02-18T15:31:42.988Z,100667.83
2019-02-18T15:34:11.633Z,100668.75
2019-02-18T15:36:40.297Z,100664.01
2019-02-18T15:39:08.970Z,100666.27
2019-02-18T15:41:37.635Z,100661.59
2019-02-18T15:44:06.265Z,100659.42
2019-02-18T15:46:34.892Z,100664.20
2019-02-18T15:49:03.943Z,100663.59
2019-02-18T15:51:32.580Z,100666.98
2019-02-18T15:54:01.235Z,100673.64
2019-02-18T15:56:29.861Z,100674.87
2019-02-18T15:58:58.586Z,100680.65
2019-02-18T16:01:27.245Z,100686.70
2019-02-18T16:03:56.383Z,100683.12
2019-02-18T16:06:24.944Z,100686.23
2019-02-18T16:08:53.671Z,100685.84
2019-02-18T16:11:22.295Z,100683.39
2019-02-18T16:13:50.847Z,100687.16
2019-02-18T16:16:19.533Z,100691.76
2019-02-18T16:18:48.179Z,100690.42
2019-02-18T16:21:16.820Z,100694.73
2019-02-18T16:23:45.497Z,100701.48
2019-02-18T16:26:14.000Z,100698.23
2019-02-18T16:28:42.561Z,100700.31
2019-02-18T16:31:11.235Z,100698.29
2019-02-18T16:33:39.889Z,100700.55
2019-02-18T16:36:10.087Z,100700.53
2019-02-18T16:38:38.903Z,100700.34
2019-02-18T16:41:07.477Z,100693.84
2019-02-18T16:43:36.498Z,100704.97
2019-02-18T16:46:05.260Z,100697.89
2019-02-18T16:48:34.099Z,100701.03
2019-02-18T16:51:02.805Z,100703.87
2019-02-18T16:53:31.481Z,100698.91
2019-02-18T16:56:00.116Z,100701.73
2019-02-18T16:58:28.735Z,100698.83
2019-02-18T17:00:57.948Z,100699.25
2019-02-18T17:03:26.780Z,100698.77
2019-02-18T17:05:55.727Z,100697.51
2019-02-18T17:08:24.328Z,100696.30
2019-02-18T17:10:52.898Z,100696.36
2019-02-18T17:13:21.463Z,100698.98
2019-02-18T17:15:50.152Z,100696.25
2019-02-18T17:18:18.723Z,100706.05
2019-02-18T17:20:47.452Z,100712.86
2019-02-18T17:23:16.049Z,100709.73
2019-02-18T17:25:44.679Z,100711.00
2019-02-18T17:28:13.253Z,100715.65
2019-02-18T17:30:42.432Z,100711.56
2019-02-18T17:33:11.072Z,100717.81
2019-02-18T17:35:39.640Z,100718.44
2019-02-18T17:38:08.922Z,100715.54
2019-02-18T17:40:37.563Z,100714.80
2019-02-18T17:43:06.140Z,100714.09
2019-02-18T17:45:34.813Z,100709.53
2019-02-18T17:48:03.386Z,100707.17
2019-02-18T17:50:31.904Z,100712.36
2019-02-18T17:53:00.580Z,100715.80
2019-02-18T17:55:29.249Z,100712.60
2019-02-18T17:58:02.312Z,100712.70
2019-02-18T18:00:32.594Z,100712.30
2019-02-18T18:03:01.096Z,100709.09
2019-02-18T18:05:29.665Z,100711.78
2019-02-18T18:07:58.826Z,100716.17
2019-02-18T18:10:27.467Z,100709.16
2019-02-18T18:12:56.183Z,100709.81
2019-02-18T18:15:25.073Z,100705.57
2019-02-18T18:17:53.680Z,100703.88
2019-02-18T18:20:22.290Z,100708.66
2019-02-18T18:22:50.971Z,100702.80
2019-02-18T18:25:19.617Z,100705.21
2019-02-18T18:27:48.240Z,100713.58
2019-02-18T18:30:20.224Z,100712.43
2019-02-18T18:32:48.987Z,100711.06
2019-02-18T18:35:17.567Z,100704.99
2019-02-18T18:37:46.219Z,100708.41
2019-02-18T18:40:17.199Z,100710.38
2019-02-18T18:42:45.945Z,100708.91
2019-02-18T18:45:18.679Z,100710.41
2019-02-18T18:47:47.404Z,100707.56
2019-02-18T18:50:19.027Z,100707.34
2019-02-18T18:52:48.073Z,100710.89
2019-02-18T18:55:16.711Z,100709.28
2019-02-18T18:57:45.380Z,100711.37
2019-02-18T19:00:18.292Z,100711.19
2019-02-18T19:02:46.927Z,100714.67
2019-02-18T19:05:15.776Z,100713.45
2019-02-18T19:07:44.455Z,100708.52
2019-02-18T19:10:13.405Z,100709.16
2019-02-18T19:12:41.980Z,100706.64
2019-02-18T19:15:13.337Z,100709.75
2019-02-18T19:17:41.902Z,100702.20
2019-02-18T19:20:11.719Z,100707.63
2019-02-18T19:22:40.434Z,100709.69
2019-02-18T19:25:10.394Z,100698.13
2019-02-18T19:27:39.026Z,100697.86
2019-02-18T19:30:13.375Z,100695.88
2019-02-18T19:32:42.052Z,100703.06
2019-02-18T19:35:12.939Z,100700.28
2019-02-18T19:37:44.648Z,100700.47
2019-02-18T19:40:14.406Z,100703.65
2019-02-18T21:24:56.962Z,100659.55
2019-02-18T21:27:25.967Z,100659.24
2019-02-18T21:29:54.731Z,100652.50
2019-02-18T21:32:23.409Z,100651.16
2019-02-18T21:34:51.981Z,100655.73
2019-02-18T21:37:20.692Z,100650.41
2019-02-18T21:39:49.291Z,100650.28
2019-02-18T21:42:18.826Z,100649.34
2019-02-18T21:44:47.565Z,100638.91
2019-02-18T21:47:16.228Z,100647.75
2019-02-18T21:49:44.861Z,100641.67
2019-02-18T21:52:13.492Z,100643.30
2019-02-18T21:54:42.040Z,100638.66
2019-02-18T21:57:10.962Z,100642.78
2019-02-18T21:59:39.524Z,100638.36
2019-02-18T22:02:08.250Z,100636.27
2019-02-18T22:04:36.888Z,100636.27
2019-02-18T22:07:05.539Z,100635.84
2019-02-18T22:09:34.191Z,100636.02
2019-02-18T22:12:02.935Z,100636.02
2019-02-18T22:14:35.210Z,100635.26
2019-02-18T22:17:02.137Z,100635.31
2019-02-18T22:19:30.767Z,100635.72
2019-02-18T22:21:59.407Z,100636.08
2019-02-18T22:24:28.085Z,100634.61
2019-02-18T22:26:56.825Z,100636.30
2019-02-18T22:29:25.452Z,100636.42
2019-02-18T22:31:54.147Z,100636.36
2019-02-18T22:34:22.778Z,100638.36
2019-02-18T22:36:51.500Z,100625.22
2019-02-18T22:39:20.175Z,100639.77
2019-02-18T22:41:48.753Z,100637.77
2019-02-18T22:44:17.393Z,100644.41
2019-02-18T22:46:46.526Z,100633.87
2019-02-18T22:49:15.127Z,100638.72
2019-02-18T22:51:45.327Z,100640.50
2019-02-18T22:54:13.995Z,100635.03
2019-02-18T22:56:42.621Z,100637.92
2019-02-18T22:59:11.188Z,100643.64
2019-02-18T23:01:40.042Z,100641.42
2019-02-18T23:04:08.846Z,100635.66
2019-02-18T23:13:40.959Z,100634.92
2019-02-18T23:16:09.464Z,100632.03
2019-02-18T23:18:37.954Z,100634.48
2019-02-18T23:21:06.701Z,100638.36
2019-02-18T23:27:10.643Z,100631.91
2019-02-18T23:29:39.221Z,100628.23
2019-02-18T23:32:07.835Z,100621.84
2019-02-18T23:34:36.426Z,100621.84
2019-02-18T23:37:05.062Z,100632.40
2019-02-18T23:39:33.802Z,100628.16
2019-02-18T23:42:02.447Z,100626.48
2019-02-18T23:44:31.015Z,100622.55
2019-02-18T23:46:59.603Z,100618.16
2019-02-18T23:49:28.308Z,100617.20
2019-02-18T23:51:56.798Z,100612.05
2019-02-18T23:54:25.299Z,100612.69
2019-02-18T23:56:53.951Z,100606.31
2019-02-18T23:59:25.594Z,100605.57
